Terminal Aerodrome Forecast
Issued by NWS

Home | Current Version | Previous Version | Text Only | Print | Product List | Glossary On
Versions: 1 2 3 4 5 6 7 8 9 10 11 12 13 14 15 16 17 18 19 20 21 22 23 24 25 26 27 28 29 30 31 32 33 34 35 36 37 38 39 40 41 42 43 44
000
FTUS43 KDLH 030600 AAA
TAFHIB
TAF AMD
KHIB 030645Z 0307/0406 20003KT P6SM SCT100 WS020/25035KT
      TEMPO 0307/0310 1SM BR FEW005
     FM031400 19009KT P6SM BKN100
     FM032100 20012KT P6SM VCTS BKN035CB OVC070
     FM040100 16008KT 5SM -SHRA BR BKN035 OVC050
     FM040500 13006KT 3SM -SHRA BR OVC025=

USA.gov is the U.S. government's official web portal to all federal, state and local government web resources and services.